sensor_id;sensor_type;location;lat;lon;timestamp;temperature;humidity
18105;DHT22;9179;50.968;3.134;2023-04-16T00:01:57;8.50;99.90
18105;DHT22;9179;50.968;3.134;2023-04-16T00:04:24;8.50;99.90
18105;DHT22;9179;50.968;3.134;2023-04-16T00:06:51;8.50;99.90
18105;DHT22;9179;50.968;3.134;2023-04-16T00:09:18;8.40;99.90
18105;DHT22;9179;50.968;3.134;2023-04-16T00:11:45;8.30;99.90
18105;DHT22;9179;50.968;3.134;2023-04-16T00:14:12;8.20;99.90
18105;DHT22;9179;50.968;3.134;2023-04-16T00:16:39;8.10;99.90
18105;DHT22;9179;50.968;3.134;2023-04-16T00:19:08;8.10;99.90
18105;DHT22;9179;50.968;3.134;2023-04-16T00:21:35;8.10;99.90
18105;DHT22;9179;50.968;3.134;2023-04-16T00:24:02;8.10;99.90
18105;DHT22;9179;50.968;3.134;2023-04-16T00:26:29;8.00;99.90
18105;DHT22;9179;50.968;3.134;2023-04-16T00:28:55;8.00;99.90
18105;DHT22;9179;50.968;3.134;2023-04-16T00:31:26;8.00;99.90
18105;DHT22;9179;50.968;3.134;2023-04-16T00:33:54;8.30;99.90
18105;DHT22;9179;50.968;3.134;2023-04-16T00:36:22;8.40;99.90
18105;DHT22;9179;50.968;3.134;2023-04-16T00:38:50;8.50;99.90
18105;DHT22;9179;50.968;3.134;2023-04-16T00:41:17;8.40;99.90
18105;DHT22;9179;50.968;3.134;2023-04-16T00:43:44;8.50;99.90
18105;DHT22;9179;50.968;3.134;2023-04-16T00:46:11;8.40;99.90
18105;DHT22;9179;50.968;3.134;2023-04-16T00:48:39;8.40;99.90
18105;DHT22;9179;50.968;3.134;2023-04-16T00:51:07;8.50;99.90
18105;DHT22;9179;50.968;3.134;2023-04-16T00:53:36;8.50;99.90
18105;DHT22;9179;50.968;3.134;2023-04-16T00:56:04;8.60;99.90
18105;DHT22;9179;50.968;3.134;2023-04-16T00:58:32;8.50;99.90
18105;DHT22;9179;50.968;3.134;2023-04-16T01:00:59;8.40;99.90
18105;DHT22;9179;50.968;3.134;2023-04-16T01:03:33;8.40;99.90
18105;DHT22;9179;50.968;3.134;2023-04-16T01:06:01;8.40;99.90
18105;DHT22;9179;50.968;3.134;2023-04-16T01:08:28;8.40;99.90
18105;DHT22;9179;50.968;3.134;2023-04-16T01:10:56;8.40;99.90
18105;DHT22;9179;50.968;3.134;2023-04-16T01:13:23;8.40;99.90
18105;DHT22;9179;50.968;3.134;2023-04-16T01:15:50;8.20;99.90
18105;DHT22;9179;50.968;3.134;2023-04-16T01:18:19;8.10;99.90
18105;DHT22;9179;50.968;3.134;2023-04-16T01:20:47;8.20;99.90
18105;DHT22;9179;50.968;3.134;2023-04-16T01:23:15;8.30;99.90
18105;DHT22;9179;50.968;3.134;2023-04-16T01:25:43;8.40;99.90
18105;DHT22;9179;50.968;3.134;2023-04-16T01:28:10;8.40;99.90
18105;DHT22;9179;50.968;3.134;2023-04-16T01:30:37;8.40;99.90
18105;DHT22;9179;50.968;3.134;2023-04-16T01:33:04;8.20;99.90
18105;DHT22;9179;50.968;3.134;2023-04-16T01:35:31;8.20;99.90
18105;DHT22;9179;50.968;3.134;2023-04-16T01:38:00;8.20;99.90
18105;DHT22;9179;50.968;3.134;2023-04-16T01:40:26;8.10;99.90
18105;DHT22;9179;50.968;3.134;2023-04-16T01:42:53;8.00;99.90
18105;DHT22;9179;50.968;3.134;2023-04-16T01:45:20;7.90;99.90
18105;DHT22;9179;50.968;3.134;2023-04-16T01:47:48;7.90;99.90
18105;DHT22;9179;50.968;3.134;2023-04-16T01:50:15;7.90;99.90
18105;DHT22;9179;50.968;3.134;2023-04-16T01:52:43;7.90;99.90
18105;DHT22;9179;50.968;3.134;2023-04-16T01:55:12;7.90;99.90
18105;DHT22;9179;50.968;3.134;2023-04-16T01:57:39;7.90;99.90
18105;DHT22;9179;50.968;3.134;2023-04-16T02:00:07;8.10;99.90
18105;DHT22;9179;50.968;3.134;2023-04-16T02:02:34;8.10;99.90
18105;DHT22;9179;50.968;3.134;2023-04-16T02:05:01;8.00;99.90
18105;DHT22;9179;50.968;3.134;2023-04-16T02:07:28;8.00;99.90
18105;DHT22;9179;50.968;3.134;2023-04-16T02:09:57;7.90;99.90
18105;DHT22;9179;50.968;3.134;2023-04-16T02:12:25;7.70;99.90
18105;DHT22;9179;50.968;3.134;2023-04-16T02:14:52;7.80;99.90
18105;DHT22;9179;50.968;3.134;2023-04-16T02:17:19;7.90;99.90
18105;DHT22;9179;50.968;3.134;2023-04-16T02:19:46;7.90;99.90
18105;DHT22;9179;50.968;3.134;2023-04-16T02:22:13;7.70;99.90
18105;DHT22;9179;50.968;3.134;2023-04-16T02:24:40;7.70;99.90
18105;DHT22;9179;50.968;3.134;2023-04-16T02:27:07;7.70;99.90
18105;DHT22;9179;50.968;3.134;2023-04-16T02:29:35;7.70;99.90
18105;DHT22;9179;50.968;3.134;2023-04-16T02:32:02;7.80;99.90
18105;DHT22;9179;50.968;3.134;2023-04-16T02:34:29;7.90;99.90
18105;DHT22;9179;50.968;3.134;2023-04-16T02:36:58;7.90;99.90
18105;DHT22;9179;50.968;3.134;2023-04-16T02:39:25;7.90;99.90
18105;DHT22;9179;50.968;3.134;2023-04-16T02:41:52;8.00;99.90
18105;DHT22;9179;50.968;3.134;2023-04-16T02:44:18;8.10;99.90
18105;DHT22;9179;50.968;3.134;2023-04-16T02:46:47;8.10;99.90
18105;DHT22;9179;50.968;3.134;2023-04-16T02:49:14;8.00;99.90
18105;DHT22;9179;50.968;3.134;2023-04-16T02:51:41;8.00;99.90
18105;DHT22;9179;50.968;3.134;2023-04-16T02:54:07;8.00;99.90
18105;DHT22;9179;50.968;3.134;2023-04-16T02:56:34;8.00;99.90
18105;DHT22;9179;50.968;3.134;2023-04-16T02:59:01;8.00;99.90
18105;DHT22;9179;50.968;3.134;2023-04-16T03:01:28;8.00;99.90
18105;DHT22;9179;50.968;3.134;2023-04-16T03:03:56;8.20;99.90
18105;DHT22;9179;50.968;3.134;2023-04-16T03:06:23;8.30;99.90
18105;DHT22;9179;50.968;3.134;2023-04-16T03:08:50;8.40;99.90
18105;DHT22;9179;50.968;3.134;2023-04-16T03:11:17;8.60;99.90
18105;DHT22;9179;50.968;3.134;2023-04-16T03:13:45;8.70;99.90
18105;DHT22;9179;50.968;3.134;2023-04-16T03:16:12;8.60;99.90
18105;DHT22;9179;50.968;3.134;2023-04-16T03:18:38;8.70;99.90
18105;DHT22;9179;50.968;3.134;2023-04-16T03:21:07;8.60;99.90
18105;DHT22;9179;50.968;3.134;2023-04-16T03:23:34;8.50;99.90
18105;DHT22;9179;50.968;3.134;2023-04-16T03:26:01;8.40;99.90
18105;DHT22;9179;50.968;3.134;2023-04-16T03:28:28;8.20;99.90
18105;DHT22;9179;50.968;3.134;2023-04-16T03:30:55;8.10;99.90
18105;DHT22;9179;50.968;3.134;2023-04-16T03:33:22;8.00;99.90
18105;DHT22;9179;50.968;3.134;2023-04-16T03:35:54;8.00;99.90
18105;DHT22;9179;50.968;3.134;2023-04-16T03:38:24;7.90;99.90
18105;DHT22;9179;50.968;3.134;2023-04-16T03:40:51;7.80;99.90
18105;DHT22;9179;50.968;3.134;2023-04-16T03:43:18;7.70;99.90
18105;DHT22;9179;50.968;3.134;2023-04-16T03:45:45;7.50;99.90
18105;DHT22;9179;50.968;3.134;2023-04-16T03:48:12;7.40;99.90
18105;DHT22;9179;50.968;3.134;2023-04-16T03:50:39;7.40;99.90
18105;DHT22;9179;50.968;3.134;2023-04-16T03:53:06;7.40;99.90
18105;DHT22;9179;50.968;3.134;2023-04-16T03:55:35;7.30;99.90
18105;DHT22;9179;50.968;3.134;2023-04-16T03:58:02;7.30;99.90
18105;DHT22;9179;50.968;3.134;2023-04-16T04:00:29;7.40;99.90
18105;DHT22;9179;50.968;3.134;2023-04-16T04:02:56;7.30;99.90
18105;DHT22;9179;50.968;3.134;2023-04-16T04:05:23;7.30;99.90
18105;DHT22;9179;50.968;3.134;2023-04-16T04:07:50;7.20;99.90
18105;DHT22;9179;50.968;3.134;2023-04-16T04:10:17;7.20;99.90
18105;DHT22;9179;50.968;3.134;2023-04-16T04:12:46;7.00;99.90
18105;DHT22;9179;50.968;3.134;2023-04-16T04:15:13;7.00;99.90
18105;DHT22;9179;50.968;3.134;2023-04-16T04:17:39;7.00;99.90
18105;DHT22;9179;50.968;3.134;2023-04-16T04:20:07;7.00;99.90
18105;DHT22;9179;50.968;3.134;2023-04-16T04:22:34;6.90;99.90
18105;DHT22;9179;50.968;3.134;2023-04-16T04:25:01;6.80;99.90
18105;DHT22;9179;50.968;3.134;2023-04-16T04:27:28;6.80;99.90
18105;DHT22;9179;50.968;3.134;2023-04-16T04:29:56;6.90;99.90
18105;DHT22;9179;50.968;3.134;2023-04-16T04:32:23;6.80;99.90
18105;DHT22;9179;50.968;3.134;2023-04-16T04:34:51;6.80;99.90
18105;DHT22;9179;50.968;3.134;2023-04-16T04:37:18;6.70;99.90
18105;DHT22;9179;50.968;3.134;2023-04-16T04:39:45;6.70;99.90
18105;DHT22;9179;50.968;3.134;2023-04-16T04:42:12;6.70;99.90
18105;DHT22;9179;50.968;3.134;2023-04-16T04:44:38;6.70;99.90
18105;DHT22;9179;50.968;3.134;2023-04-16T04:47:07;6.80;99.90
18105;DHT22;9179;50.968;3.134;2023-04-16T04:49:34;6.80;99.90
18105;DHT22;9179;50.968;3.134;2023-04-16T04:52:01;6.80;99.90
18105;DHT22;9179;50.968;3.134;2023-04-16T04:54:29;6.90;99.90
18105;DHT22;9179;50.968;3.134;2023-04-16T04:56:56;6.90;99.90
18105;DHT22;9179;50.968;3.134;2023-04-16T04:59:24;6.90;99.90
18105;DHT22;9179;50.968;3.134;2023-04-16T05:01:51;6.90;99.90
18105;DHT22;9179;50.968;3.134;2023-04-16T05:04:19;6.90;99.90
18105;DHT22;9179;50.968;3.134;2023-04-16T05:06:46;6.90;99.90
18105;DHT22;9179;50.968;3.134;2023-04-16T05:09:13;6.90;99.90
18105;DHT22;9179;50.968;3.134;2023-04-16T05:11:41;7.00;99.90
18105;DHT22;9179;50.968;3.134;2023-04-16T05:14:08;7.00;99.90
18105;DHT22;9179;50.968;3.134;2023-04-16T05:16:35;7.10;99.90
18105;DHT22;9179;50.968;3.134;2023-04-16T05:19:03;7.10;99.90
18105;DHT22;9179;50.968;3.134;2023-04-16T05:21:32;7.20;99.90
18105;DHT22;9179;50.968;3.134;2023-04-16T05:23:59;7.30;99.90
18105;DHT22;9179;50.968;3.134;2023-04-16T05:26:26;7.50;99.90
18105;DHT22;9179;50.968;3.134;2023-04-16T05:28:53;7.80;99.90
18105;DHT22;9179;50.968;3.134;2023-04-16T05:31:19;8.00;99.90
18105;DHT22;9179;50.968;3.134;2023-04-16T05:33:46;8.40;99.90
18105;DHT22;9179;50.968;3.134;2023-04-16T05:36:13;8.80;99.90
18105;DHT22;9179;50.968;3.134;2023-04-16T05:38:42;9.30;99.90
18105;DHT22;9179;50.968;3.134;2023-04-16T05:41:09;9.60;99.90
18105;DHT22;9179;50.968;3.134;2023-04-16T05:43:35;9.60;99.90
18105;DHT22;9179;50.968;3.134;2023-04-16T05:46:03;10.10;99.90
18105;DHT22;9179;50.968;3.134;2023-04-16T05:48:29;11.00;99.90
18105;DHT22;9179;50.968;3.134;2023-04-16T05:50:56;11.80;99.90
18105;DHT22;9179;50.968;3.134;2023-04-16T05:53:23;12.20;99.90
18105;DHT22;9179;50.968;3.134;2023-04-16T05:55:52;12.60;99.90
18105;DHT22;9179;50.968;3.134;2023-04-16T05:58:19;12.90;99.90
18105;DHT22;9179;50.968;3.134;2023-04-16T06:00:46;13.30;99.90
18105;DHT22;9179;50.968;3.134;2023-04-16T06:03:12;13.30;99.90
18105;DHT22;9179;50.968;3.134;2023-04-16T06:05:39;13.30;99.90
18105;DHT22;9179;50.968;3.134;2023-04-16T06:08:06;13.60;99.90
18105;DHT22;9179;50.968;3.134;2023-04-16T06:10:33;14.50;99.90
18105;DHT22;9179;50.968;3.134;2023-04-16T06:13:02;14.70;99.90
18105;DHT22;9179;50.968;3.134;2023-04-16T06:15:29;14.70;99.90
18105;DHT22;9179;50.968;3.134;2023-04-16T06:17:55;14.60;99.90
18105;DHT22;9179;50.968;3.134;2023-04-16T06:20:22;14.70;99.90
18105;DHT22;9179;50.968;3.134;2023-04-16T06:22:49;15.00;99.90
18105;DHT22;9179;50.968;3.134;2023-04-16T06:25:17;15.00;99.90
18105;DHT22;9179;50.968;3.134;2023-04-16T06:27:43;14.70;99.90
18105;DHT22;9179;50.968;3.134;2023-04-16T06:30:13;14.40;99.90
18105;DHT22;9179;50.968;3.134;2023-04-16T06:32:41;15.00;99.90
18105;DHT22;9179;50.968;3.134;2023-04-16T06:35:08;15.40;99.90
18105;DHT22;9179;50.968;3.134;2023-04-16T06:37:35;15.70;99.90
18105;DHT22;9179;50.968;3.134;2023-04-16T06:40:03;15.90;99.90
18105;DHT22;9179;50.968;3.134;2023-04-16T06:42:30;16.30;99.90
18105;DHT22;9179;50.968;3.134;2023-04-16T06:44:57;16.70;99.90
18105;DHT22;9179;50.968;3.134;2023-04-16T06:47:25;16.20;99.90
18105;DHT22;9179;50.968;3.134;2023-04-16T06:49:52;16.30;99.90
18105;DHT22;9179;50.968;3.134;2023-04-16T06:52:19;16.40;99.90
18105;DHT22;9179;50.968;3.134;2023-04-16T06:54:47;16.60;99.90
18105;DHT22;9179;50.968;3.134;2023-04-16T06:57:14;16.40;99.90
18105;DHT22;9179;50.968;3.134;2023-04-16T06:59:41;16.60;99.90
18105;DHT22;9179;50.968;3.134;2023-04-16T07:02:09;16.50;99.90
18105;DHT22;9179;50.968;3.134;2023-04-16T07:04:38;16.80;99.90
18105;DHT22;9179;50.968;3.134;2023-04-16T07:07:04;16.90;99.90
18105;DHT22;9179;50.968;3.134;2023-04-16T07:09:31;16.80;99.90
18105;DHT22;9179;50.968;3.134;2023-04-16T07:11:58;16.30;99.90
18105;DHT22;9179;50.968;3.134;2023-04-16T07:14:25;16.20;99.90
18105;DHT22;9179;50.968;3.134;2023-04-16T07:16:52;16.30;99.90
18105;DHT22;9179;50.968;3.134;2023-04-16T07:19:19;15.60;99.90
18105;DHT22;9179;50.968;3.134;2023-04-16T07:21:47;15.90;99.90
18105;DHT22;9179;50.968;3.134;2023-04-16T07:24:15;16.60;99.90
18105;DHT22;9179;50.968;3.134;2023-04-16T07:26:42;15.90;99.90
18105;DHT22;9179;50.968;3.134;2023-04-16T07:29:09;15.60;99.90
18105;DHT22;9179;50.968;3.134;2023-04-16T07:31:36;15.50;99.90
18105;DHT22;9179;50.968;3.134;2023-04-16T07:34:03;16.30;99.90
18105;DHT22;9179;50.968;3.134;2023-04-16T07:36:30;16.60;99.90
18105;DHT22;9179;50.968;3.134;2023-04-16T07:38:58;17.10;99.90
18105;DHT22;9179;50.968;3.134;2023-04-16T07:41:25;18.00;99.90
18105;DHT22;9179;50.968;3.134;2023-04-16T07:43:52;18.50;99.90
18105;DHT22;9179;50.968;3.134;2023-04-16T07:46:19;18.40;99.90
18105;DHT22;9179;50.968;3.134;2023-04-16T07:48:46;17.50;99.90
18105;DHT22;9179;50.968;3.134;2023-04-16T07:51:13;16.60;99.90
18105;DHT22;9179;50.968;3.134;2023-04-16T07:53:40;16.20;99.90
18105;DHT22;9179;50.968;3.134;2023-04-16T07:56:09;16.10;99.90
18105;DHT22;9179;50.968;3.134;2023-04-16T07:58:36;16.90;99.90
18105;DHT22;9179;50.968;3.134;2023-04-16T08:01:03;17.40;99.90
18105;DHT22;9179;50.968;3.134;2023-04-16T08:03:30;18.20;99.90
18105;DHT22;9179;50.968;3.134;2023-04-16T08:05:57;18.30;99.90
18105;DHT22;9179;50.968;3.134;2023-04-16T08:08:25;17.80;99.90
18105;DHT22;9179;50.968;3.134;2023-04-16T08:10:53;17.90;99.90
18105;DHT22;9179;50.968;3.134;2023-04-16T08:13:22;17.10;99.90
18105;DHT22;9179;50.968;3.134;2023-04-16T08:15:49;17.20;99.90
18105;DHT22;9179;50.968;3.134;2023-04-16T08:18:17;17.80;99.90
18105;DHT22;9179;50.968;3.134;2023-04-16T08:20:44;17.80;99.90
18105;DHT22;9179;50.968;3.134;2023-04-16T08:23:11;17.80;99.90
18105;DHT22;9179;50.968;3.134;2023-04-16T08:25:38;17.60;99.90
18105;DHT22;9179;50.968;3.134;2023-04-16T08:28:05;17.50;99.90
18105;DHT22;9179;50.968;3.134;2023-04-16T08:30:34;17.70;99.90
18105;DHT22;9179;50.968;3.134;2023-04-16T08:33:01;17.90;99.90
18105;DHT22;9179;50.968;3.134;2023-04-16T08:35:28;18.00;99.90
18105;DHT22;9179;50.968;3.134;2023-04-16T08:37:55;17.80;99.90
18105;DHT22;9179;50.968;3.134;2023-04-16T08:40:24;17.90;99.90
18105;DHT22;9179;50.968;3.134;2023-04-16T08:42:53;18.40;99.90
18105;DHT22;9179;50.968;3.134;2023-04-16T08:45:20;18.90;99.90
18105;DHT22;9179;50.968;3.134;2023-04-16T08:47:50;18.70;99.90
18105;DHT22;9179;50.968;3.134;2023-04-16T08:50:22;18.70;99.90
18105;DHT22;9179;50.968;3.134;2023-04-16T08:52:51;19.10;99.90
18105;DHT22;9179;50.968;3.134;2023-04-16T08:55:21;19.00;97.60
18105;DHT22;9179;50.968;3.134;2023-04-16T08:57:51;18.90;98.80
18105;DHT22;9179;50.968;3.134;2023-04-16T09:00:20;19.30;98.30
18105;DHT22;9179;50.968;3.134;2023-04-16T09:02:49;19.30;97.30
18105;DHT22;9179;50.968;3.134;2023-04-16T09:05:17;19.40;97.40
18105;DHT22;9179;50.968;3.134;2023-04-16T09:07:46;19.70;96.50
18105;DHT22;9179;50.968;3.134;2023-04-16T09:10:14;19.70;96.40
18105;DHT22;9179;50.968;3.134;2023-04-16T09:12:41;19.60;96.90
18105;DHT22;9179;50.968;3.134;2023-04-16T09:15:09;20.00;96.50
18105;DHT22;9179;50.968;3.134;2023-04-16T09:17:37;20.10;94.70
18105;DHT22;9179;50.968;3.134;2023-04-16T09:20:07;19.70;94.90
18105;DHT22;9179;50.968;3.134;2023-04-16T09:22:36;19.60;95.20
18105;DHT22;9179;50.968;3.134;2023-04-16T09:25:03;19.50;95.40
18105;DHT22;9179;50.968;3.134;2023-04-16T09:27:31;19.70;95.50
18105;DHT22;9179;50.968;3.134;2023-04-16T09:29:58;19.80;94.70
18105;DHT22;9179;50.968;3.134;2023-04-16T09:32:26;19.40;94.00
18105;DHT22;9179;50.968;3.134;2023-04-16T09:34:54;19.30;94.50
18105;DHT22;9179;50.968;3.134;2023-04-16T09:37:24;20.20;94.00
18105;DHT22;9179;50.968;3.134;2023-04-16T09:39:55;20.30;93.80
18105;DHT22;9179;50.968;3.134;2023-04-16T09:42:25;20.70;92.90
18105;DHT22;9179;50.968;3.134;2023-04-16T09:44:53;20.80;92.40
18105;DHT22;9179;50.968;3.134;2023-04-16T09:47:21;20.60;92.60
18105;DHT22;9179;50.968;3.134;2023-04-16T09:49:49;21.00;92.60
18105;DHT22;9179;50.968;3.134;2023-04-16T09:52:20;21.70;90.80
18105;DHT22;9179;50.968;3.134;2023-04-16T09:54:50;20.70;90.40
18105;DHT22;9179;50.968;3.134;2023-04-16T09:57:18;20.10;91.00
18105;DHT22;9179;50.968;3.134;2023-04-16T09:59:47;19.70;91.10
18105;DHT22;9179;50.968;3.134;2023-04-16T10:02:14;19.50;91.20
18105;DHT22;9179;50.968;3.134;2023-04-16T10:04:48;19.20;91.40
18105;DHT22;9179;50.968;3.134;2023-04-16T10:07:15;18.70;92.00
18105;DHT22;9179;50.968;3.134;2023-04-16T10:09:43;18.70;92.60
18105;DHT22;9179;50.968;3.134;2023-04-16T10:12:11;19.00;92.60
18105;DHT22;9179;50.968;3.134;2023-04-16T10:14:38;19.80;92.20
18105;DHT22;9179;50.968;3.134;2023-04-16T10:17:06;19.60;91.60
18105;DHT22;9179;50.968;3.134;2023-04-16T10:19:34;19.60;91.30
18105;DHT22;9179;50.968;3.134;2023-04-16T10:22:01;19.90;91.60
18105;DHT22;9179;50.968;3.134;2023-04-16T10:24:29;20.00;90.70
18105;DHT22;9179;50.968;3.134;2023-04-16T10:26:57;19.70;90.90
18105;DHT22;9179;50.968;3.134;2023-04-16T10:29:27;19.90;91.10
18105;DHT22;9179;50.968;3.134;2023-04-16T10:31:55;20.30;90.30
18105;DHT22;9179;50.968;3.134;2023-04-16T10:34:23;20.00;90.10
18105;DHT22;9179;50.968;3.134;2023-04-16T10:36:51;20.40;89.70
18105;DHT22;9179;50.968;3.134;2023-04-16T10:39:20;20.70;89.10
18105;DHT22;9179;50.968;3.134;2023-04-16T10:41:48;20.90;88.70
18105;DHT22;9179;50.968;3.134;2023-04-16T10:44:17;21.30;88.90
18105;DHT22;9179;50.968;3.134;2023-04-16T10:46:46;21.50;85.60
18105;DHT22;9179;50.968;3.134;2023-04-16T10:49:15;21.60;83.80
18105;DHT22;9179;50.968;3.134;2023-04-16T10:51:52;20.70;83.40
18105;DHT22;9179;50.968;3.134;2023-04-16T10:54:24;20.60;85.90
18105;DHT22;9179;50.968;3.134;2023-04-16T10:56:52;20.50;86.20
18105;DHT22;9179;50.968;3.134;2023-04-16T10:59:20;21.00;86.30
18105;DHT22;9179;50.968;3.134;2023-04-16T11:01:51;21.40;85.60
18105;DHT22;9179;50.968;3.134;2023-04-16T11:04:29;21.30;85.30
18105;DHT22;9179;50.968;3.134;2023-04-16T11:07:04;21.20;84.30
18105;DHT22;9179;50.968;3.134;2023-04-16T11:09:50;20.80;84.30
18105;DHT22;9179;50.968;3.134;2023-04-16T11:12:19;20.70;84.70
18105;DHT22;9179;50.968;3.134;2023-04-16T11:14:48;20.90;84.70
18105;DHT22;9179;50.968;3.134;2023-04-16T11:17:16;20.90;85.10
18105;DHT22;9179;50.968;3.134;2023-04-16T11:19:44;20.80;84.60
18105;DHT22;9179;50.968;3.134;2023-04-16T11:22:13;20.60;85.40
18105;DHT22;9179;50.968;3.134;2023-04-16T11:24:42;19.90;84.60
18105;DHT22;9179;50.968;3.134;2023-04-16T11:27:11;19.70;86.50
18105;DHT22;9179;50.968;3.134;2023-04-16T11:29:38;19.40;86.70
18105;DHT22;9179;50.968;3.134;2023-04-16T11:32:05;19.20;86.80
18105;DHT22;9179;50.968;3.134;2023-04-16T11:34:33;19.70;89.30
18105;DHT22;9179;50.968;3.134;2023-04-16T11:37:00;19.90;88.00
18105;DHT22;9179;50.968;3.134;2023-04-16T11:39:27;20.40;89.00
18105;DHT22;9179;50.968;3.134;2023-04-16T11:41:54;20.40;87.40
18105;DHT22;9179;50.968;3.134;2023-04-16T11:44:23;20.20;87.80
18105;DHT22;9179;50.968;3.134;2023-04-16T11:46:51;20.00;88.10
18105;DHT22;9179;50.968;3.134;2023-04-16T11:49:26;19.80;89.50
18105;DHT22;9179;50.968;3.134;2023-04-16T11:51:55;19.50;90.00
18105;DHT22;9179;50.968;3.134;2023-04-16T11:54:23;19.60;90.10
18105;DHT22;9179;50.968;3.134;2023-04-16T11:56:51;19.50;90.10
18105;DHT22;9179;50.968;3.134;2023-04-16T11:59:20;19.70;90.30
18105;DHT22;9179;50.968;3.134;2023-04-16T12:01:49;19.80;90.70
18105;DHT22;9179;50.968;3.134;2023-04-16T12:04:19;20.20;90.40
18105;DHT22;9179;50.968;3.134;2023-04-16T12:07:07;20.20;88.60
18105;DHT22;9179;50.968;3.134;2023-04-16T12:09:35;20.10;87.50
18105;DHT22;9179;50.968;3.134;2023-04-16T12:12:04;20.10;86.80
18105;DHT22;9179;50.968;3.134;2023-04-16T12:14:31;20.00;84.90
18105;DHT22;9179;50.968;3.134;2023-04-16T12:17:16;20.00;85.50
18105;DHT22;9179;50.968;3.134;2023-04-16T12:19:50;20.40;85.00
18105;DHT22;9179;50.968;3.134;2023-04-16T12:22:26;20.20;83.40
18105;DHT22;9179;50.968;3.134;2023-04-16T12:24:55;20.20;83.90
18105;DHT22;9179;50.968;3.134;2023-04-16T12:27:23;20.20;84.50
18105;DHT22;9179;50.968;3.134;2023-04-16T12:30:03;20.40;83.20
18105;DHT22;9179;50.968;3.134;2023-04-16T12:32:31;20.50;82.30
18105;DHT22;9179;50.968;3.134;2023-04-16T12:34:58;21.10;81.30
18105;DHT22;9179;50.968;3.134;2023-04-16T12:37:26;21.00;80.10
18105;DHT22;9179;50.968;3.134;2023-04-16T12:39:53;20.60;79.80
18105;DHT22;9179;50.968;3.134;2023-04-16T12:42:20;21.00;80.60
18105;DHT22;9179;50.968;3.134;2023-04-16T12:44:47;21.40;79.50
18105;DHT22;9179;50.968;3.134;2023-04-16T12:47:14;21.00;77.70
18105;DHT22;9179;50.968;3.134;2023-04-16T12:49:41;20.90;78.40
18105;DHT22;9179;50.968;3.134;2023-04-16T12:52:09;21.30;78.10
18105;DHT22;9179;50.968;3.134;2023-04-16T12:54:37;21.90;77.60
18105;DHT22;9179;50.968;3.134;2023-04-16T12:57:04;21.70;77.70
18105;DHT22;9179;50.968;3.134;2023-04-16T12:59:31;22.40;77.40
18105;DHT22;9179;50.968;3.134;2023-04-16T13:01:59;22.30;75.00
18105;DHT22;9179;50.968;3.134;2023-04-16T13:04:27;22.50;74.70
18105;DHT22;9179;50.968;3.134;2023-04-16T13:06:54;22.60;74.60
18105;DHT22;9179;50.968;3.134;2023-04-16T13:09:21;22.80;72.30
18105;DHT22;9179;50.968;3.134;2023-04-16T13:11:49;23.10;72.10
18105;DHT22;9179;50.968;3.134;2023-04-16T13:14:16;23.50;70.60
18105;DHT22;9179;50.968;3.134;2023-04-16T13:16:43;23.50;69.70
18105;DHT22;9179;50.968;3.134;2023-04-16T13:19:10;23.50;69.10
18105;DHT22;9179;50.968;3.134;2023-04-16T13:21:37;23.30;68.30
18105;DHT22;9179;50.968;3.134;2023-04-16T13:24:05;23.00;68.80
18105;DHT22;9179;50.968;3.134;2023-04-16T13:26:32;23.20;68.60
18105;DHT22;9179;50.968;3.134;2023-04-16T13:29:00;23.50;66.90
18105;DHT22;9179;50.968;3.134;2023-04-16T13:31:28;23.60;66.00
18105;DHT22;9179;50.968;3.134;2023-04-16T13:33:55;23.90;66.30
18105;DHT22;9179;50.968;3.134;2023-04-16T13:36:22;24.00;64.20
18105;DHT22;9179;50.968;3.134;2023-04-16T13:38:48;24.50;63.40
18105;DHT22;9179;50.968;3.134;2023-04-16T13:41:16;25.60;62.10
18105;DHT22;9179;50.968;3.134;2023-04-16T13:43:43;25.30;60.20
18105;DHT22;9179;50.968;3.134;2023-04-16T13:46:11;25.70;61.80
18105;DHT22;9179;50.968;3.134;2023-04-16T13:48:38;25.30;60.20
18105;DHT22;9179;50.968;3.134;2023-04-16T13:51:05;23.90;61.60
18105;DHT22;9179;50.968;3.134;2023-04-16T13:53:32;23.70;62.60
18105;DHT22;9179;50.968;3.134;2023-04-16T13:56:00;24.20;60.00
18105;DHT22;9179;50.968;3.134;2023-04-16T13:58:28;24.20;59.30
18105;DHT22;9179;50.968;3.134;2023-04-16T14:00:55;24.60;58.90
18105;DHT22;9179;50.968;3.134;2023-04-16T14:03:24;25.40;57.80
18105;DHT22;9179;50.968;3.134;2023-04-16T14:05:51;25.40;56.70
18105;DHT22;9179;50.968;3.134;2023-04-16T14:08:18;25.80;57.40
18105;DHT22;9179;50.968;3.134;2023-04-16T14:10:46;26.50;56.40
18105;DHT22;9179;50.968;3.134;2023-04-16T14:13:12;26.80;56.00
18105;DHT22;9179;50.968;3.134;2023-04-16T14:15:40;26.70;56.00
18105;DHT22;9179;50.968;3.134;2023-04-16T14:18:06;26.40;56.60
18105;DHT22;9179;50.968;3.134;2023-04-16T14:20:35;27.10;55.40
18105;DHT22;9179;50.968;3.134;2023-04-16T14:23:04;27.20;55.20
18105;DHT22;9179;50.968;3.134;2023-04-16T14:25:31;27.30;55.40
18105;DHT22;9179;50.968;3.134;2023-04-16T14:27:58;27.20;55.60
18105;DHT22;9179;50.968;3.134;2023-04-16T14:30:25;26.60;56.00
18105;DHT22;9179;50.968;3.134;2023-04-16T14:32:52;26.60;56.10
18105;DHT22;9179;50.968;3.134;2023-04-16T14:35:20;27.10;54.80
18105;DHT22;9179;50.968;3.134;2023-04-16T14:37:48;27.20;53.40
18105;DHT22;9179;50.968;3.134;2023-04-16T14:40:15;27.00;53.60
18105;DHT22;9179;50.968;3.134;2023-04-16T14:42:42;27.30;51.90
18105;DHT22;9179;50.968;3.134;2023-04-16T14:45:09;27.70;51.90
18105;DHT22;9179;50.968;3.134;2023-04-16T14:47:39;28.30;51.40
18105;DHT22;9179;50.968;3.134;2023-04-16T14:50:11;28.20;49.70
18105;DHT22;9179;50.968;3.134;2023-04-16T14:52:39;27.60;50.50
18105;DHT22;9179;50.968;3.134;2023-04-16T14:55:07;27.90;50.60
18105;DHT22;9179;50.968;3.134;2023-04-16T14:57:34;27.50;51.10
18105;DHT22;9179;50.968;3.134;2023-04-16T15:00:03;27.30;51.00
18105;DHT22;9179;50.968;3.134;2023-04-16T15:02:34;26.30;51.00
18105;DHT22;9179;50.968;3.134;2023-04-16T15:05:01;25.90;53.10
18105;DHT22;9179;50.968;3.134;2023-04-16T15:07:28;27.00;52.50
18105;DHT22;9179;50.968;3.134;2023-04-16T15:09:55;27.20;51.40
18105;DHT22;9179;50.968;3.134;2023-04-16T15:12:23;28.30;50.30
18105;DHT22;9179;50.968;3.134;2023-04-16T15:14:51;28.70;48.90
18105;DHT22;9179;50.968;3.134;2023-04-16T15:17:18;28.60;49.60
18105;DHT22;9179;50.968;3.134;2023-04-16T15:19:45;28.10;49.10
18105;DHT22;9179;50.968;3.134;2023-04-16T15:22:12;28.00;49.50
18105;DHT22;9179;50.968;3.134;2023-04-16T15:24:39;28.30;50.20
18105;DHT22;9179;50.968;3.134;2023-04-16T15:27:06;28.60;50.00
18105;DHT22;9179;50.968;3.134;2023-04-16T15:29:35;27.70;51.10
18105;DHT22;9179;50.968;3.134;2023-04-16T15:32:02;27.40;52.10
18105;DHT22;9179;50.968;3.134;2023-04-16T15:34:29;26.90;52.80
18105;DHT22;9179;50.968;3.134;2023-04-16T15:36:56;25.20;54.20
18105;DHT22;9179;50.968;3.134;2023-04-16T15:39:23;24.60;54.90
18105;DHT22;9179;50.968;3.134;2023-04-16T15:41:50;24.00;55.70
18105;DHT22;9179;50.968;3.134;2023-04-16T15:44:17;23.30;56.30
18105;DHT22;9179;50.968;3.134;2023-04-16T15:46:46;23.20;56.50
18105;DHT22;9179;50.968;3.134;2023-04-16T15:49:12;23.10;56.80
18105;DHT22;9179;50.968;3.134;2023-04-16T15:51:39;23.30;57.00
18105;DHT22;9179;50.968;3.134;2023-04-16T15:54:06;24.40;56.70
18105;DHT22;9179;50.968;3.134;2023-04-16T15:56:33;25.40;55.80